sensor_id;sensor_type;location;lat;lon;timestamp;temperature;humidity
14604;DHT22;7388;51.078;13.740;2024-03-25T00:01:31;9.60;47.50
14604;DHT22;7388;51.078;13.740;2024-03-25T00:03:57;9.70;47.20
14604;DHT22;7388;51.078;13.740;2024-03-25T00:06:23;9.80;47.10
14604;DHT22;7388;51.078;13.740;2024-03-25T00:08:49;9.70;47.10
14604;DHT22;7388;51.078;13.740;2024-03-25T00:11:15;9.60;47.20
14604;DHT22;7388;51.078;13.740;2024-03-25T00:13:40;9.60;47.30
14604;DHT22;7388;51.078;13.740;2024-03-25T00:16:06;9.60;47.40
14604;DHT22;7388;51.078;13.740;2024-03-25T00:18:33;9.70;47.30
14604;DHT22;7388;51.078;13.740;2024-03-25T00:20:58;9.70;47.40
14604;DHT22;7388;51.078;13.740;2024-03-25T00:23:24;9.60;48.00
14604;DHT22;7388;51.078;13.740;2024-03-25T00:25:50;9.40;48.70
14604;DHT22;7388;51.078;13.740;2024-03-25T00:28:17;9.30;49.10
14604;DHT22;7388;51.078;13.740;2024-03-25T00:30:44;9.20;49.40
14604;DHT22;7388;51.078;13.740;2024-03-25T00:33:10;9.00;49.50
14604;DHT22;7388;51.078;13.740;2024-03-25T00:35:37;8.70;50.30
14604;DHT22;7388;51.078;13.740;2024-03-25T00:38:03;8.70;50.30
14604;DHT22;7388;51.078;13.740;2024-03-25T00:40:29;8.80;50.30
14604;DHT22;7388;51.078;13.740;2024-03-25T00:42:55;8.80;50.30
14604;DHT22;7388;51.078;13.740;2024-03-25T00:45:21;8.90;50.00
14604;DHT22;7388;51.078;13.740;2024-03-25T00:47:47;9.00;50.20
14604;DHT22;7388;51.078;13.740;2024-03-25T00:50:14;9.00;49.80
14604;DHT22;7388;51.078;13.740;2024-03-25T00:52:40;9.00;50.00
14604;DHT22;7388;51.078;13.740;2024-03-25T00:55:06;9.10;49.90
14604;DHT22;7388;51.078;13.740;2024-03-25T00:57:33;9.20;49.70
14604;DHT22;7388;51.078;13.740;2024-03-25T00:59:59;9.10;49.70
14604;DHT22;7388;51.078;13.740;2024-03-25T01:02:25;9.20;49.80
14604;DHT22;7388;51.078;13.740;2024-03-25T01:04:53;9.10;49.80
14604;DHT22;7388;51.078;13.740;2024-03-25T01:07:20;9.30;49.70
14604;DHT22;7388;51.078;13.740;2024-03-25T01:09:46;9.30;49.50
14604;DHT22;7388;51.078;13.740;2024-03-25T01:12:11;9.30;49.60
14604;DHT22;7388;51.078;13.740;2024-03-25T01:14:37;9.40;49.60
14604;DHT22;7388;51.078;13.740;2024-03-25T01:17:03;9.40;49.70
14604;DHT22;7388;51.078;13.740;2024-03-25T01:19:29;9.50;49.80
14604;DHT22;7388;51.078;13.740;2024-03-25T01:21:55;9.50;49.80
14604;DHT22;7388;51.078;13.740;2024-03-25T01:24:21;9.40;50.00
14604;DHT22;7388;51.078;13.740;2024-03-25T01:26:47;9.40;50.20
14604;DHT22;7388;51.078;13.740;2024-03-25T01:29:12;9.50;50.50
14604;DHT22;7388;51.078;13.740;2024-03-25T01:31:38;9.30;50.40
14604;DHT22;7388;51.078;13.740;2024-03-25T01:34:04;9.30;50.70
14604;DHT22;7388;51.078;13.740;2024-03-25T01:36:31;9.10;50.20
14604;DHT22;7388;51.078;13.740;2024-03-25T01:38:57;9.10;50.50
14604;DHT22;7388;51.078;13.740;2024-03-25T01:41:23;9.10;50.50
14604;DHT22;7388;51.078;13.740;2024-03-25T01:43:49;9.10;49.90
14604;DHT22;7388;51.078;13.740;2024-03-25T01:46:16;9.10;49.70
14604;DHT22;7388;51.078;13.740;2024-03-25T01:48:46;9.00;50.00
14604;DHT22;7388;51.078;13.740;2024-03-25T01:51:15;8.90;50.40
14604;DHT22;7388;51.078;13.740;2024-03-25T01:53:42;8.90;50.70
14604;DHT22;7388;51.078;13.740;2024-03-25T01:56:09;8.90;50.50
14604;DHT22;7388;51.078;13.740;2024-03-25T01:58:35;8.70;50.30
14604;DHT22;7388;51.078;13.740;2024-03-25T02:01:02;8.70;51.30
14604;DHT22;7388;51.078;13.740;2024-03-25T02:03:29;8.60;50.50
14604;DHT22;7388;51.078;13.740;2024-03-25T02:06:02;8.60;50.90
14604;DHT22;7388;51.078;13.740;2024-03-25T02:08:28;8.60;51.00
14604;DHT22;7388;51.078;13.740;2024-03-25T02:10:55;8.80;50.80
14604;DHT22;7388;51.078;13.740;2024-03-25T02:13:22;8.90;50.50
14604;DHT22;7388;51.078;13.740;2024-03-25T02:15:48;9.10;50.20
14604;DHT22;7388;51.078;13.740;2024-03-25T02:18:17;9.20;49.80
14604;DHT22;7388;51.078;13.740;2024-03-25T02:20:44;9.10;49.80
14604;DHT22;7388;51.078;13.740;2024-03-25T02:23:11;9.20;49.90
14604;DHT22;7388;51.078;13.740;2024-03-25T02:25:39;9.10;50.40
14604;DHT22;7388;51.078;13.740;2024-03-25T02:28:06;9.10;50.50
14604;DHT22;7388;51.078;13.740;2024-03-25T02:30:31;9.10;50.50
14604;DHT22;7388;51.078;13.740;2024-03-25T02:32:57;9.10;50.60
14604;DHT22;7388;51.078;13.740;2024-03-25T02:35:25;9.10;50.60
14604;DHT22;7388;51.078;13.740;2024-03-25T02:37:52;9.10;50.60
14604;DHT22;7388;51.078;13.740;2024-03-25T02:40:18;9.00;50.70
14604;DHT22;7388;51.078;13.740;2024-03-25T02:42:45;8.90;51.20
14604;DHT22;7388;51.078;13.740;2024-03-25T02:45:11;8.90;51.30
14604;DHT22;7388;51.078;13.740;2024-03-25T02:47:37;8.90;51.60
14604;DHT22;7388;51.078;13.740;2024-03-25T02:50:03;8.80;51.60
14604;DHT22;7388;51.078;13.740;2024-03-25T02:52:28;8.90;51.60
14604;DHT22;7388;51.078;13.740;2024-03-25T02:54:54;9.10;51.30
14604;DHT22;7388;51.078;13.740;2024-03-25T02:57:21;9.10;51.20
14604;DHT22;7388;51.078;13.740;2024-03-25T02:59:46;9.20;51.10
14604;DHT22;7388;51.078;13.740;2024-03-25T03:02:12;9.30;50.90
14604;DHT22;7388;51.078;13.740;2024-03-25T03:04:38;9.30;50.90
14604;DHT22;7388;51.078;13.740;2024-03-25T03:07:04;9.40;50.70
14604;DHT22;7388;51.078;13.740;2024-03-25T03:09:30;9.30;50.70
14604;DHT22;7388;51.078;13.740;2024-03-25T03:11:56;9.20;50.90
14604;DHT22;7388;51.078;13.740;2024-03-25T03:14:22;9.10;51.30
14604;DHT22;7388;51.078;13.740;2024-03-25T03:16:47;9.20;51.10
14604;DHT22;7388;51.078;13.740;2024-03-25T03:19:14;9.20;51.00
14604;DHT22;7388;51.078;13.740;2024-03-25T03:21:40;9.30;51.00
14604;DHT22;7388;51.078;13.740;2024-03-25T03:24:06;9.40;50.80
14604;DHT22;7388;51.078;13.740;2024-03-25T03:26:32;9.40;50.60
14604;DHT22;7388;51.078;13.740;2024-03-25T03:28:58;9.40;50.50
14604;DHT22;7388;51.078;13.740;2024-03-25T03:31:24;9.50;50.20
14604;DHT22;7388;51.078;13.740;2024-03-25T03:33:51;9.50;50.10
14604;DHT22;7388;51.078;13.740;2024-03-25T03:36:18;9.50;49.90
14604;DHT22;7388;51.078;13.740;2024-03-25T03:38:45;9.60;49.60
14604;DHT22;7388;51.078;13.740;2024-03-25T03:41:11;9.60;48.90
14604;DHT22;7388;51.078;13.740;2024-03-25T03:43:36;9.40;49.20
14604;DHT22;7388;51.078;13.740;2024-03-25T03:46:03;9.40;49.30
14604;DHT22;7388;51.078;13.740;2024-03-25T03:48:29;9.40;49.30
14604;DHT22;7388;51.078;13.740;2024-03-25T03:50:55;9.50;49.30
14604;DHT22;7388;51.078;13.740;2024-03-25T03:53:21;9.60;48.90
14604;DHT22;7388;51.078;13.740;2024-03-25T03:55:57;9.50;48.80
14604;DHT22;7388;51.078;13.740;2024-03-25T03:58:23;9.40;49.00
14604;DHT22;7388;51.078;13.740;2024-03-25T04:00:50;9.30;48.80
14604;DHT22;7388;51.078;13.740;2024-03-25T04:03:16;9.30;49.20
14604;DHT22;7388;51.078;13.740;2024-03-25T04:05:42;9.30;48.90
14604;DHT22;7388;51.078;13.740;2024-03-25T04:08:08;9.30;48.80
14604;DHT22;7388;51.078;13.740;2024-03-25T04:10:35;9.20;48.80
14604;DHT22;7388;51.078;13.740;2024-03-25T04:13:02;9.30;49.30
14604;DHT22;7388;51.078;13.740;2024-03-25T04:15:28;9.40;48.70
14604;DHT22;7388;51.078;13.740;2024-03-25T04:17:54;9.50;48.70
14604;DHT22;7388;51.078;13.740;2024-03-25T04:20:19;9.50;48.50
14604;DHT22;7388;51.078;13.740;2024-03-25T04:22:46;9.60;48.30
14604;DHT22;7388;51.078;13.740;2024-03-25T04:25:13;9.50;48.00
14604;DHT22;7388;51.078;13.740;2024-03-25T04:27:45;9.60;48.20
14604;DHT22;7388;51.078;13.740;2024-03-25T04:30:11;9.50;47.90
14604;DHT22;7388;51.078;13.740;2024-03-25T04:32:38;9.60;47.70
14604;DHT22;7388;51.078;13.740;2024-03-25T04:35:05;9.60;47.90
14604;DHT22;7388;51.078;13.740;2024-03-25T04:37:35;9.60;47.40
14604;DHT22;7388;51.078;13.740;2024-03-25T04:40:01;9.60;47.40
14604;DHT22;7388;51.078;13.740;2024-03-25T04:42:28;9.60;47.30
14604;DHT22;7388;51.078;13.740;2024-03-25T04:44:54;9.70;47.20
14604;DHT22;7388;51.078;13.740;2024-03-25T04:47:20;9.70;47.10
14604;DHT22;7388;51.078;13.740;2024-03-25T04:49:46;9.70;46.70
14604;DHT22;7388;51.078;13.740;2024-03-25T04:52:12;9.60;46.80
14604;DHT22;7388;51.078;13.740;2024-03-25T04:54:39;9.50;46.90
14604;DHT22;7388;51.078;13.740;2024-03-25T04:57:05;9.60;47.00
14604;DHT22;7388;51.078;13.740;2024-03-25T04:59:32;9.60;46.70
14604;DHT22;7388;51.078;13.740;2024-03-25T05:01:59;9.50;46.90
14604;DHT22;7388;51.078;13.740;2024-03-25T05:04:25;9.40;46.70
14604;DHT22;7388;51.078;13.740;2024-03-25T05:06:51;9.40;46.70
14604;DHT22;7388;51.078;13.740;2024-03-25T05:09:17;9.40;47.00
14604;DHT22;7388;51.078;13.740;2024-03-25T05:11:43;9.40;47.00
14604;DHT22;7388;51.078;13.740;2024-03-25T05:14:08;9.50;46.80
14604;DHT22;7388;51.078;13.740;2024-03-25T05:16:34;9.50;46.80
14604;DHT22;7388;51.078;13.740;2024-03-25T05:19:00;9.40;46.60
14604;DHT22;7388;51.078;13.740;2024-03-25T05:21:26;9.30;47.00
14604;DHT22;7388;51.078;13.740;2024-03-25T05:23:52;9.40;46.80
14604;DHT22;7388;51.078;13.740;2024-03-25T05:26:17;9.40;46.60
14604;DHT22;7388;51.078;13.740;2024-03-25T05:28:43;9.40;47.10
14604;DHT22;7388;51.078;13.740;2024-03-25T05:31:09;9.30;47.80
14604;DHT22;7388;51.078;13.740;2024-03-25T05:33:35;9.30;48.30
14604;DHT22;7388;51.078;13.740;2024-03-25T05:36:02;9.40;48.40
14604;DHT22;7388;51.078;13.740;2024-03-25T05:38:28;9.50;48.40
14604;DHT22;7388;51.078;13.740;2024-03-25T05:40:54;9.60;48.00
14604;DHT22;7388;51.078;13.740;2024-03-25T05:43:20;9.70;47.70
14604;DHT22;7388;51.078;13.740;2024-03-25T05:45:53;9.70;47.40
14604;DHT22;7388;51.078;13.740;2024-03-25T05:48:20;9.60;47.40
14604;DHT22;7388;51.078;13.740;2024-03-25T05:50:45;9.40;47.20
14604;DHT22;7388;51.078;13.740;2024-03-25T05:53:12;9.40;47.50
14604;DHT22;7388;51.078;13.740;2024-03-25T05:55:38;9.40;47.30
14604;DHT22;7388;51.078;13.740;2024-03-25T05:58:04;9.50;47.00
14604;DHT22;7388;51.078;13.740;2024-03-25T06:00:30;9.50;47.00
14604;DHT22;7388;51.078;13.740;2024-03-25T06:02:59;9.60;46.90
14604;DHT22;7388;51.078;13.740;2024-03-25T06:05:24;9.70;46.60
14604;DHT22;7388;51.078;13.740;2024-03-25T06:07:50;9.70;46.60
14604;DHT22;7388;51.078;13.740;2024-03-25T06:10:16;9.60;46.30
14604;DHT22;7388;51.078;13.740;2024-03-25T06:12:42;9.70;46.50
14604;DHT22;7388;51.078;13.740;2024-03-25T06:15:08;9.70;46.30
14604;DHT22;7388;51.078;13.740;2024-03-25T06:17:33;9.80;46.30
14604;DHT22;7388;51.078;13.740;2024-03-25T06:19:59;9.90;46.20
14604;DHT22;7388;51.078;13.740;2024-03-25T06:22:25;9.90;46.20
14604;DHT22;7388;51.078;13.740;2024-03-25T06:24:51;9.90;46.00
14604;DHT22;7388;51.078;13.740;2024-03-25T06:27:17;10.00;46.20
14604;DHT22;7388;51.078;13.740;2024-03-25T06:29:43;9.90;45.80
14604;DHT22;7388;51.078;13.740;2024-03-25T06:32:11;9.90;45.70
14604;DHT22;7388;51.078;13.740;2024-03-25T06:34:55;9.90;45.90
14604;DHT22;7388;51.078;13.740;2024-03-25T06:37:25;9.90;45.70
14604;DHT22;7388;51.078;13.740;2024-03-25T06:39:51;9.70;45.60
14604;DHT22;7388;51.078;13.740;2024-03-25T06:42:18;9.70;46.10
14604;DHT22;7388;51.078;13.740;2024-03-25T06:44:44;9.70;46.10
14604;DHT22;7388;51.078;13.740;2024-03-25T06:47:15;9.80;45.90
14604;DHT22;7388;51.078;13.740;2024-03-25T06:49:40;9.80;45.70
14604;DHT22;7388;51.078;13.740;2024-03-25T06:52:06;9.70;45.50
14604;DHT22;7388;51.078;13.740;2024-03-25T06:54:32;9.70;46.20
14604;DHT22;7388;51.078;13.740;2024-03-25T06:56:58;9.80;46.10
14604;DHT22;7388;51.078;13.740;2024-03-25T06:59:24;9.90;45.60
14604;DHT22;7388;51.078;13.740;2024-03-25T07:01:49;9.90;46.30
14604;DHT22;7388;51.078;13.740;2024-03-25T07:04:15;10.00;45.60
14604;DHT22;7388;51.078;13.740;2024-03-25T07:06:41;10.10;45.10
14604;DHT22;7388;51.078;13.740;2024-03-25T07:09:07;10.00;44.60
14604;DHT22;7388;51.078;13.740;2024-03-25T07:11:36;9.90;45.00
14604;DHT22;7388;51.078;13.740;2024-03-25T07:14:02;9.90;44.80
14604;DHT22;7388;51.078;13.740;2024-03-25T07:16:28;10.00;44.90
14604;DHT22;7388;51.078;13.740;2024-03-25T07:18:53;10.00;44.40
14604;DHT22;7388;51.078;13.740;2024-03-25T07:21:19;10.10;44.50
14604;DHT22;7388;51.078;13.740;2024-03-25T07:23:45;10.00;44.80
14604;DHT22;7388;51.078;13.740;2024-03-25T07:26:11;10.20;44.60
14604;DHT22;7388;51.078;13.740;2024-03-25T07:28:36;10.30;44.40
14604;DHT22;7388;51.078;13.740;2024-03-25T07:31:02;10.30;43.90
14604;DHT22;7388;51.078;13.740;2024-03-25T07:33:28;10.00;44.30
14604;DHT22;7388;51.078;13.740;2024-03-25T07:35:54;10.10;45.10
14604;DHT22;7388;51.078;13.740;2024-03-25T07:38:20;10.10;44.70
14604;DHT22;7388;51.078;13.740;2024-03-25T07:40:46;10.20;44.70
14604;DHT22;7388;51.078;13.740;2024-03-25T07:43:11;10.30;44.60
14604;DHT22;7388;51.078;13.740;2024-03-25T07:45:37;10.50;44.60
14604;DHT22;7388;51.078;13.740;2024-03-25T07:48:05;10.50;43.50
14604;DHT22;7388;51.078;13.740;2024-03-25T07:50:33;10.60;43.10
14604;DHT22;7388;51.078;13.740;2024-03-25T07:52:59;10.60;43.10
14604;DHT22;7388;51.078;13.740;2024-03-25T07:55:25;10.70;43.60
14604;DHT22;7388;51.078;13.740;2024-03-25T07:57:50;10.70;43.20
14604;DHT22;7388;51.078;13.740;2024-03-25T08:00:16;10.70;42.80
14604;DHT22;7388;51.078;13.740;2024-03-25T08:02:42;10.80;43.20
14604;DHT22;7388;51.078;13.740;2024-03-25T08:05:08;10.80;42.80
14604;DHT22;7388;51.078;13.740;2024-03-25T08:07:34;10.70;42.30
14604;DHT22;7388;51.078;13.740;2024-03-25T08:10:00;10.50;42.50
14604;DHT22;7388;51.078;13.740;2024-03-25T08:12:25;10.60;43.50
14604;DHT22;7388;51.078;13.740;2024-03-25T08:14:51;10.70;43.20
14604;DHT22;7388;51.078;13.740;2024-03-25T08:17:17;10.90;42.90
14604;DHT22;7388;51.078;13.740;2024-03-25T08:19:43;11.00;42.80
14604;DHT22;7388;51.078;13.740;2024-03-25T08:22:09;11.20;41.70
14604;DHT22;7388;51.078;13.740;2024-03-25T08:24:34;11.20;41.60
14604;DHT22;7388;51.078;13.740;2024-03-25T08:27:00;11.10;41.80
14604;DHT22;7388;51.078;13.740;2024-03-25T08:29:26;11.20;41.80
14604;DHT22;7388;51.078;13.740;2024-03-25T08:31:52;11.30;41.50
14604;DHT22;7388;51.078;13.740;2024-03-25T08:34:17;11.40;41.10
14604;DHT22;7388;51.078;13.740;2024-03-25T08:36:44;11.50;41.50
14604;DHT22;7388;51.078;13.740;2024-03-25T08:39:09;11.50;40.70
14604;DHT22;7388;51.078;13.740;2024-03-25T08:41:36;11.50;41.20
14604;DHT22;7388;51.078;13.740;2024-03-25T08:44:02;11.50;40.30
14604;DHT22;7388;51.078;13.740;2024-03-25T08:46:28;11.40;40.70
14604;DHT22;7388;51.078;13.740;2024-03-25T08:48:54;11.40;40.20
14604;DHT22;7388;51.078;13.740;2024-03-25T08:51:19;11.30;40.40
14604;DHT22;7388;51.078;13.740;2024-03-25T08:53:45;11.30;39.90
14604;DHT22;7388;51.078;13.740;2024-03-25T08:56:11;11.20;41.00
14604;DHT22;7388;51.078;13.740;2024-03-25T08:58:37;11.40;41.50
14604;DHT22;7388;51.078;13.740;2024-03-25T09:01:03;11.40;40.40
14604;DHT22;7388;51.078;13.740;2024-03-25T09:03:29;11.50;40.00
14604;DHT22;7388;51.078;13.740;2024-03-25T09:05:55;11.50;40.40
14604;DHT22;7388;51.078;13.740;2024-03-25T09:08:21;11.60;40.40
14604;DHT22;7388;51.078;13.740;2024-03-25T09:10:47;11.60;40.40
14604;DHT22;7388;51.078;13.740;2024-03-25T09:13:29;11.60;39.90
14604;DHT22;7388;51.078;13.740;2024-03-25T09:15:55;11.70;40.00
14604;DHT22;7388;51.078;13.740;2024-03-25T09:18:21;11.60;39.00
14604;DHT22;7388;51.078;13.740;2024-03-25T09:20:47;11.60;39.20
14604;DHT22;7388;51.078;13.740;2024-03-25T09:23:12;11.60;39.30
14604;DHT22;7388;51.078;13.740;2024-03-25T09:25:38;11.60;39.30
14604;DHT22;7388;51.078;13.740;2024-03-25T09:28:04;11.60;39.70
14604;DHT22;7388;51.078;13.740;2024-03-25T09:30:32;11.60;39.10
14604;DHT22;7388;51.078;13.740;2024-03-25T09:32:57;11.50;39.70
14604;DHT22;7388;51.078;13.740;2024-03-25T09:35:23;11.50;40.40
14604;DHT22;7388;51.078;13.740;2024-03-25T09:37:49;11.50;39.90
14604;DHT22;7388;51.078;13.740;2024-03-25T09:40:15;11.70;39.60
14604;DHT22;7388;51.078;13.740;2024-03-25T09:42:42;11.70;39.30
14604;DHT22;7388;51.078;13.740;2024-03-25T09:45:12;11.80;39.30
14604;DHT22;7388;51.078;13.740;2024-03-25T09:47:39;12.00;39.20
14604;DHT22;7388;51.078;13.740;2024-03-25T09:50:06;12.10;38.00
14604;DHT22;7388;51.078;13.740;2024-03-25T09:52:34;12.30;38.70
14604;DHT22;7388;51.078;13.740;2024-03-25T09:55:00;12.40;38.00
14604;DHT22;7388;51.078;13.740;2024-03-25T09:57:26;12.40;38.00
14604;DHT22;7388;51.078;13.740;2024-03-25T09:59:52;12.40;36.50
14604;DHT22;7388;51.078;13.740;2024-03-25T10:02:19;12.30;36.60
14604;DHT22;7388;51.078;13.740;2024-03-25T10:04:47;12.30;37.80
14604;DHT22;7388;51.078;13.740;2024-03-25T10:07:22;12.40;37.50
14604;DHT22;7388;51.078;13.740;2024-03-25T10:09:49;12.40;36.90
14604;DHT22;7388;51.078;13.740;2024-03-25T10:12:15;12.30;37.70
14604;DHT22;7388;51.078;13.740;2024-03-25T10:14:41;12.20;36.30
14604;DHT22;7388;51.078;13.740;2024-03-25T10:17:07;12.00;36.50
14604;DHT22;7388;51.078;13.740;2024-03-25T10:19:34;11.90;37.00
14604;DHT22;7388;51.078;13.740;2024-03-25T10:22:07;11.70;37.70
14604;DHT22;7388;51.078;13.740;2024-03-25T10:24:42;11.80;38.00
14604;DHT22;7388;51.078;13.740;2024-03-25T10:27:21;11.90;37.30
14604;DHT22;7388;51.078;13.740;2024-03-25T10:29:55;12.00;37.90
14604;DHT22;7388;51.078;13.740;2024-03-25T10:32:22;12.20;38.00
14604;DHT22;7388;51.078;13.740;2024-03-25T10:34:54;12.30;37.20
14604;DHT22;7388;51.078;13.740;2024-03-25T10:37:21;12.10;37.10
14604;DHT22;7388;51.078;13.740;2024-03-25T10:39:50;12.10;37.90
14604;DHT22;7388;51.078;13.740;2024-03-25T10:42:20;12.20;37.30
14604;DHT22;7388;51.078;13.740;2024-03-25T10:44:49;12.20;37.30
14604;DHT22;7388;51.078;13.740;2024-03-25T10:47:20;12.40;37.60
14604;DHT22;7388;51.078;13.740;2024-03-25T10:49:53;12.40;37.40
14604;DHT22;7388;51.078;13.740;2024-03-25T10:52:22;12.60;37.50
14604;DHT22;7388;51.078;13.740;2024-03-25T10:54:49;12.80;37.60
14604;DHT22;7388;51.078;13.740;2024-03-25T10:57:16;13.00;36.80
14604;DHT22;7388;51.078;13.740;2024-03-25T10:59:45;13.10;35.60
14604;DHT22;7388;51.078;13.740;2024-03-25T11:02:12;13.10;36.10
14604;DHT22;7388;51.078;13.740;2024-03-25T11:04:39;13.20;35.00
14604;DHT22;7388;51.078;13.740;2024-03-25T11:07:10;12.90;34.30
14604;DHT22;7388;51.078;13.740;2024-03-25T11:09:40;12.80;36.00
14604;DHT22;7388;51.078;13.740;2024-03-25T11:12:06;12.70;35.20
14604;DHT22;7388;51.078;13.740;2024-03-25T11:14:33;12.70;35.90
14604;DHT22;7388;51.078;13.740;2024-03-25T11:17:01;12.70;35.80
14604;DHT22;7388;51.078;13.740;2024-03-25T11:19:28;12.80;36.10
14604;DHT22;7388;51.078;13.740;2024-03-25T11:22:06;12.90;36.60
14604;DHT22;7388;51.078;13.740;2024-03-25T11:24:32;13.00;35.00
14604;DHT22;7388;51.078;13.740;2024-03-25T11:27:01;12.90;34.60
14604;DHT22;7388;51.078;13.740;2024-03-25T11:29:26;13.00;34.60
14604;DHT22;7388;51.078;13.740;2024-03-25T11:31:53;13.00;34.50
14604;DHT22;7388;51.078;13.740;2024-03-25T11:34:22;13.00;34.90
14604;DHT22;7388;51.078;13.740;2024-03-25T11:36:47;13.20;35.10
14604;DHT22;7388;51.078;13.740;2024-03-25T11:39:15;13.20;34.00
14604;DHT22;7388;51.078;13.740;2024-03-25T11:41:42;13.20;34.70
14604;DHT22;7388;51.078;13.740;2024-03-25T11:44:09;13.20;33.40
14604;DHT22;7388;51.078;13.740;2024-03-25T11:46:39;13.10;34.30
14604;DHT22;7388;51.078;13.740;2024-03-25T11:49:14;13.30;34.50
14604;DHT22;7388;51.078;13.740;2024-03-25T11:51:40;13.40;34.60
14604;DHT22;7388;51.078;13.740;2024-03-25T11:54:12;13.30;34.10
14604;DHT22;7388;51.078;13.740;2024-03-25T11:56:39;13.30;34.50
14604;DHT22;7388;51.078;13.740;2024-03-25T11:59:05;13.20;34.00
14604;DHT22;7388;51.078;13.740;2024-03-25T12:01:31;13.10;33.40
14604;DHT22;7388;51.078;13.740;2024-03-25T12:03:57;13.00;33.00
14604;DHT22;7388;51.078;13.740;2024-03-25T12:06:23;12.90;33.80
14604;DHT22;7388;51.078;13.740;2024-03-25T12:08:49;12.90;34.00
14604;DHT22;7388;51.078;13.740;2024-03-25T12:11:33;13.10;34.90
14604;DHT22;7388;51.078;13.740;2024-03-25T12:14:01;13.30;34.80
14604;DHT22;7388;51.078;13.740;2024-03-25T12:16:27;13.60;34.90
14604;DHT22;7388;51.078;13.740;2024-03-25T12:18:53;13.80;32.60
14604;DHT22;7388;51.078;13.740;2024-03-25T12:21:19;14.10;33.40
14604;DHT22;7388;51.078;13.740;2024-03-25T12:23:47;14.30;32.10
14604;DHT22;7388;51.078;13.740;2024-03-25T12:26:13;14.30;31.50
14604;DHT22;7388;51.078;13.740;2024-03-25T12:28:42;14.20;31.00
14604;DHT22;7388;51.078;13.740;2024-03-25T12:31:08;14.00;31.00
14604;DHT22;7388;51.078;13.740;2024-03-25T12:33:40;14.00;32.40
14604;DHT22;7388;51.078;13.740;2024-03-25T12:36:06;14.10;32.50
14604;DHT22;7388;51.078;13.740;2024-03-25T12:38:32;14.10;32.30
14604;DHT22;7388;51.078;13.740;2024-03-25T12:41:11;14.10;31.50
14604;DHT22;7388;51.078;13.740;2024-03-25T12:43:47;14.10;31.60
14604;DHT22;7388;51.078;13.740;2024-03-25T12:46:12;14.00;31.80
14604;DHT22;7388;51.078;13.740;2024-03-25T12:48:38;13.80;31.30
14604;DHT22;7388;51.078;13.740;2024-03-25T12:51:11;13.70;31.40
14604;DHT22;7388;51.078;13.740;2024-03-25T12:53:37;13.70;31.50
14604;DHT22;7388;51.078;13.740;2024-03-25T12:56:03;13.70;31.10
14604;DHT22;7388;51.078;13.740;2024-03-25T12:58:28;13.60;31.80
14604;DHT22;7388;51.078;13.740;2024-03-25T13:00:54;13.60;32.10
14604;DHT22;7388;51.078;13.740;2024-03-25T13:03:21;13.70;32.50
14604;DHT22;7388;51.078;13.740;2024-03-25T13:05:47;13.90;32.30
14604;DHT22;7388;51.078;13.740;2024-03-25T13:08:13;14.00;31.30
14604;DHT22;7388;51.078;13.740;2024-03-25T13:10:39;14.10;32.20
14604;DHT22;7388;51.078;13.740;2024-03-25T13:13:05;14.20;31.50
14604;DHT22;7388;51.078;13.740;2024-03-25T13:15:31;14.10;31.60
14604;DHT22;7388;51.078;13.740;2024-03-25T13:17:57;14.10;31.80
14604;DHT22;7388;51.078;13.740;2024-03-25T13:20:23;13.90;32.20
14604;DHT22;7388;51.078;13.740;2024-03-25T13:22:49;13.80;32.40
14604;DHT22;7388;51.078;13.740;2024-03-25T13:25:18;13.90;32.40
14604;DHT22;7388;51.078;13.740;2024-03-25T13:27:44;13.80;31.90
14604;DHT22;7388;51.078;13.740;2024-03-25T13:30:10;13.80;31.60
14604;DHT22;7388;51.078;13.740;2024-03-25T13:32:36;13.90;31.70
14604;DHT22;7388;51.078;13.740;2024-03-25T13:35:02;13.90;31.00
14604;DHT22;7388;51.078;13.740;2024-03-25T13:37:28;13.90;31.40
14604;DHT22;7388;51.078;13.740;2024-03-25T13:39:54;13.90;32.10
14604;DHT22;7388;51.078;13.740;2024-03-25T13:42:20;13.80;30.90
14604;DHT22;7388;51.078;13.740;2024-03-25T13:44:46;13.80;31.30
14604;DHT22;7388;51.078;13.740;2024-03-25T13:47:11;14.00;31.70
14604;DHT22;7388;51.078;13.740;2024-03-25T13:49:37;14.20;31.80
14604;DHT22;7388;51.078;13.740;2024-03-25T13:52:03;14.50;30.40
14604;DHT22;7388;51.078;13.740;2024-03-25T13:54:30;14.60;30.90
14604;DHT22;7388;51.078;13.740;2024-03-25T13:56:56;14.80;30.80
14604;DHT22;7388;51.078;13.740;2024-03-25T13:59:22;15.00;29.70
14604;DHT22;7388;51.078;13.740;2024-03-25T14:01:48;15.00;28.90
14604;DHT22;7388;51.078;13.740;2024-03-25T14:04:14;15.00;28.80
14604;DHT22;7388;51.078;13.740;2024-03-25T14:06:40;14.90;28.00
14604;DHT22;7388;51.078;13.740;2024-03-25T14:09:07;14.80;28.70
14604;DHT22;7388;51.078;13.740;2024-03-25T14:11:35;14.80;29.10
14604;DHT22;7388;51.078;13.740;2024-03-25T14:14:01;14.90;28.90
14604;DHT22;7388;51.078;13.740;2024-03-25T14:16:30;15.10;29.80
14604;DHT22;7388;51.078;13.740;2024-03-25T14:18:56;15.10;29.10
14604;DHT22;7388;51.078;13.740;2024-03-25T14:21:22;15.20;30.40
14604;DHT22;7388;51.078;13.740;2024-03-25T14:23:48;15.30;29.50
14604;DHT22;7388;51.078;13.740;2024-03-25T14:26:14;15.30;30.20
14604;DHT22;7388;51.078;13.740;2024-03-25T14:28:42;15.30;30.10
14604;DHT22;7388;51.078;13.740;2024-03-25T14:31:08;15.20;29.80
14604;DHT22;7388;51.078;13.740;2024-03-25T14:33:34;15.10;30.00
14604;DHT22;7388;51.078;13.740;2024-03-25T14:36:00;15.00;30.20
14604;DHT22;7388;51.078;13.740;2024-03-25T14:38:25;15.00;30.30
14604;DHT22;7388;51.078;13.740;2024-03-25T14:40:51;15.00;29.40
14604;DHT22;7388;51.078;13.740;2024-03-25T14:43:18;14.80;29.70
14604;DHT22;7388;51.078;13.740;2024-03-25T14:45:48;14.70;29.70
14604;DHT22;7388;51.078;13.740;2024-03-25T14:48:14;14.70;30.60
14604;DHT22;7388;51.078;13.740;2024-03-25T14:50:40;14.80;31.50
14604;DHT22;7388;51.078;13.740;2024-03-25T14:53:05;15.10;31.30
14604;DHT22;7388;51.078;13.740;2024-03-25T14:55:32;15.30;30.70
14604;DHT22;7388;51.078;13.740;2024-03-25T14:57:58;15.50;31.30
14604;DHT22;7388;51.078;13.740;2024-03-25T15:00:24;15.80;29.40
14604;DHT22;7388;51.078;13.740;2024-03-25T15:02:51;15.90;29.50
14604;DHT22;7388;51.078;13.740;2024-03-25T15:05:17;16.10;29.80
14604;DHT22;7388;51.078;13.740;2024-03-25T15:07:44;16.30;28.80
14604;DHT22;7388;51.078;13.740;2024-03-25T15:10:10;16.40;28.70
14604;DHT22;7388;51.078;13.740;2024-03-25T15:12:37;16.50;29.00
14604;DHT22;7388;51.078;13.740;2024-03-25T15:15:04;16.50;25.90
14604;DHT22;7388;51.078;13.740;2024-03-25T15:17:35;16.40;26.10
14604;DHT22;7388;51.078;13.740;2024-03-25T15:20:03;16.40;26.90
14604;DHT22;7388;51.078;13.740;2024-03-25T15:22:31;16.40;27.10
14604;DHT22;7388;51.078;13.740;2024-03-25T15:24:57;16.30;26.80
14604;DHT22;7388;51.078;13.740;2024-03-25T15:27:23;16.30;26.50
14604;DHT22;7388;51.078;13.740;2024-03-25T15:29:49;16.10;26.60
14604;DHT22;7388;51.078;13.740;2024-03-25T15:32:15;15.80;26.70
14604;DHT22;7388;51.078;13.740;2024-03-25T15:34:41;15.70;26.80